Date,TemperatureHighF,TemperatureAvgF,TemperatureLowF,DewpointHighF,DewpointAvgF,DewpointLowF,HumidityHigh,HumidityAvg,HumidityLow,PressureMaxIn,PressureMinIn,WindSpeedMaxMPH,WindSpeedAvgMPH,GustSpeedMaxMPH,PrecipitationSumIn
2013-1-1,14.0,10.3,6.0,9.0,3.8,-1.0,90,75,65,0.00,40.00,32,24,42,0.00
2013-1-2,13.0,11.0,8.0,7.0,4.0,-3.0,84,73,58,0.00,40.00,25,20,30,0.00
2013-1-3,26.0,17.3,8.0,6.0,-4.4,-11.0,62,39,20,0.00,40.00,25,15,30,0.00
2013-1-4,31.0,19.2,9.0,11.0,-0.6,-9.0,59,42,25,0.00,40.00,12,3,19,0.00
2013-1-5,30.0,22.0,9.0,6.0,-0.9,-10.0,53,37,16,0.00,40.00,33,20,40,0.00
2013-1-6,42.0,32.5,17.0,12.0,0.3,-12.0,48,26,14,0.00,40.00,28,14,35,0.00
2013-1-7,35.0,29.7,24.0,15.0,3.8,-4.0,60,34,20,0.00,40.00,52,28,63,0.00
2013-1-8,28.0,25.4,23.0,21.0,19.1,15.0,94,77,61,0.00,40.00,42,35,55,0.00
2013-1-9,44.0,35.2,25.0,22.0,13.9,5.0,73,44,24,0.00,40.00,35,16,45,0.00
2013-1-10,44.0,36.6,27.0,15.0,7.8,-2.0,59,31,15,0.00,40.00,39,15,49,0.00
2013-1-11,32.0,15.1,1.0,26.0,11.5,-2.0,100,87,45,0.00,40.00,40,23,51,0.25
2013-1-12,4.0,-1.4,-9.0,-1.0,-5.2,-12.0,90,83,66,0.00,40.00,27,13,34,0.00
2013-1-13,1.0,-3.7,-8.0,-5.0,-8.9,-15.0,88,78,63,0.00,40.00,15,6,18,0.00
2013-1-14,0.0,-3.5,-8.0,-9.0,-12.0,-16.0,74,66,57,0.00,40.00,38,21,49,0.00
2013-1-15,22.0,10.8,-1.0,16.0,3.1,-12.0,81,71,58,0.00,40.00,39,33,49,0.00
2013-1-16,31.0,23.1,18.0,17.0,13.0,8.0,80,65,50,0.00,40.00,37,28,48,0.00
2013-1-17,37.0,26.3,14.0,16.0,8.5,4.0,70,48,32,0.00,40.00,28,14,34,0.00
2013-1-18,34.0,31.1,27.0,9.0,5.6,3.0,38,33,30,0.00,40.00,40,30,51,0.00
2013-1-19,37.0,31.1,25.0,11.0,4.8,2.0,45,33,23,0.00,40.00,40,30,60,0.00
2013-1-20,32.0,28.1,24.0,8.0,4.5,2.0,48,36,31,0.00,40.00,34,24,43,0.00
2013-1-21,33.0,28.7,25.0,12.0,9.0,7.0,50,43,35,0.00,40.00,41,33,54,0.00
2013-1-22,40.0,37.5,32.0,32.0,-2.4,-10.0,26,18,12,0.00,40.00,41,31,54,0.00
2013-1-23,47.0,40.6,35.0,13.0,1.2,-10.0,35,19,12,0.00,40.00,31,19,40,0.00
2013-1-24,40.0,35.8,33.0,29.0,16.8,3.0,85,50,21,0.00,40.00,45,32,57,0.07
2013-1-25,36.0,33.5,31.0,29.0,27.4,26.0,90,78,66,0.00,40.00,35,25,46,0.00
2013-1-26,41.0,35.9,33.0,31.0,27.2,24.0,91,71,52,0.00,40.00,34,14,47,0.00
2013-1-27,40.0,34.0,30.0,31.0,25.9,18.0,100,74,43,0.00,40.00,34,16,47,0.06
2013-1-28,34.0,20.2,10.0,29.0,16.9,5.0,100,87,60,0.00,40.00,29,17,37,0.18
2013-1-29,13.0,9.3,5.0,9.0,4.6,0.0,95,81,71,0.00,40.00,27,18,34,0.00
2013-1-30,24.0,15.5,4.0,22.0,13.6,2.0,98,92,81,0.00,40.00,44,30,60,0.23
2013-1-31,26.0,23.6,20.0,23.0,20.5,17.0,96,88,79,0.00,40.00,34,28,45,0.17